createdAt,value
2017-09-17T00:00:37.865Z,1005.93
2017-09-17T00:01:37.851Z,1005.94
2017-09-17T00:02:37.829Z,1005.94
2017-09-17T00:03:37.808Z,1005.92
2017-09-17T00:04:37.787Z,1005.91
2017-09-17T00:05:37.769Z,1005.92
2017-09-17T00:06:37.750Z,1005.9
2017-09-17T00:07:37.729Z,1005.93
2017-09-17T00:08:37.708Z,1005.93
2017-09-17T00:09:37.686Z,1005.95
2017-09-17T00:10:37.670Z,1005.92
2017-09-17T00:11:37.651Z,1005.94
2017-09-17T00:12:37.632Z,1005.93
2017-09-17T00:13:37.616Z,1005.88
2017-09-17T00:14:37.588Z,1005.88
2017-09-17T00:15:37.579Z,1005.9
2017-09-17T00:16:37.556Z,1005.87
2017-09-17T00:17:37.531Z,1005.9
2017-09-17T00:18:37.521Z,1005.89
2017-09-17T00:19:37.491Z,1005.88
2017-09-17T00:20:37.482Z,1005.87
2017-09-17T00:21:37.460Z,1005.84
2017-09-17T00:22:37.439Z,1005.84
2017-09-17T00:23:37.418Z,1005.83
2017-09-17T00:24:37.399Z,1005.84
2017-09-17T00:25:37.379Z,1005.81
2017-09-17T00:26:37.354Z,1005.82
2017-09-17T00:27:37.333Z,1005.83
2017-09-17T00:28:37.347Z,1005.8
2017-09-17T00:29:37.295Z,1005.8
2017-09-17T00:30:37.278Z,1005.82
2017-09-17T00:31:37.260Z,1005.83
2017-09-17T00:32:37.337Z,1005.81
2017-09-17T00:33:37.218Z,1005.78
2017-09-17T00:34:37.199Z,1005.79
2017-09-17T00:35:37.177Z,1005.78
2017-09-17T00:36:37.158Z,1005.79
2017-09-17T00:37:37.138Z,1005.82
2017-09-17T00:38:37.119Z,1005.8
2017-09-17T00:39:37.100Z,1005.76
2017-09-17T00:40:37.079Z,1005.8
2017-09-17T00:41:37.060Z,1005.77
2017-09-17T00:42:37.154Z,1005.76
2017-09-17T00:43:37.020Z,1005.74
2017-09-17T00:44:37.010Z,1005.73
2017-09-17T00:45:36.980Z,1005.73
2017-09-17T00:46:36.964Z,1005.72
2017-09-17T00:47:36.938Z,1005.74
2017-09-17T00:48:36.924Z,1005.75
2017-09-17T00:49:36.904Z,1005.72
2017-09-17T00:50:36.888Z,1005.72
2017-09-17T00:51:36.863Z,1005.75
2017-09-17T00:52:36.853Z,1005.75
2017-09-17T00:53:36.821Z,1005.76
2017-09-17T00:54:36.809Z,1005.77
2017-09-17T00:55:36.782Z,1005.75
2017-09-17T00:56:36.774Z,1005.79
2017-09-17T00:57:36.745Z,1005.74
2017-09-17T00:58:36.731Z,1005.76
2017-09-17T00:59:36.703Z,1005.77
2017-09-17T01:00:36.688Z,1005.78
2017-09-17T01:01:36.666Z,1005.78
2017-09-17T01:02:36.649Z,1005.76
2017-09-17T01:03:36.627Z,1005.73
2017-09-17T01:04:36.609Z,1005.75
2017-09-17T01:05:36.601Z,1005.78
2017-09-17T01:06:36.569Z,1005.74
2017-09-17T01:07:36.542Z,1005.76
2017-09-17T01:08:36.528Z,1005.79
2017-09-17T01:09:36.515Z,1005.81
2017-09-17T01:10:36.491Z,1005.73
2017-09-17T01:11:36.470Z,1005.77
2017-09-17T01:12:36.449Z,1005.81
2017-09-17T01:13:36.428Z,1005.8
2017-09-17T01:14:36.406Z,1005.79
2017-09-17T01:15:36.387Z,1005.77
2017-09-17T01:16:36.368Z,1005.74
2017-09-17T01:17:36.352Z,1005.74
2017-09-17T01:18:36.330Z,1005.75
2017-09-17T01:19:36.309Z,1005.78
2017-09-17T01:20:36.297Z,1005.76
2017-09-17T01:21:36.265Z,1005.72
2017-09-17T01:22:36.254Z,1005.73
2017-09-17T01:23:36.239Z,1005.75
2017-09-17T01:24:36.207Z,1005.73
2017-09-17T01:25:36.186Z,1005.71
2017-09-17T01:26:36.163Z,1005.73
2017-09-17T01:27:36.145Z,1005.77
2017-09-17T01:28:36.125Z,1005.73
2017-09-17T01:29:36.107Z,1005.77
2017-09-17T01:30:36.088Z,1005.77
2017-09-17T01:31:36.065Z,1005.79
2017-09-17T01:32:36.051Z,1005.78
2017-09-17T01:33:36.028Z,1005.77
2017-09-17T01:34:36.011Z,1005.77
2017-09-17T01:35:35.997Z,1005.75
2017-09-17T01:36:35.969Z,1005.78
2017-09-17T01:37:35.950Z,1005.79
2017-09-17T01:38:35.928Z,1005.8
2017-09-17T01:39:35.913Z,1005.77
2017-09-17T01:40:35.889Z,1005.77
2017-09-17T01:41:35.871Z,1005.78
2017-09-17T01:42:35.845Z,1005.76
2017-09-17T01:43:35.827Z,1005.77
2017-09-17T01:44:35.809Z,1005.78
2017-09-17T01:45:35.792Z,1005.76
2017-09-17T01:46:35.768Z,1005.73
2017-09-17T01:47:35.748Z,1005.75
2017-09-17T01:48:35.728Z,1005.75
2017-09-17T01:49:35.707Z,1005.77
2017-09-17T01:50:35.687Z,1005.75
2017-09-17T01:51:35.667Z,1005.76
2017-09-17T01:52:35.649Z,1005.74
2017-09-17T01:53:35.624Z,1005.76
2017-09-17T01:54:35.612Z,1005.71
2017-09-17T01:55:35.588Z,1005.73
2017-09-17T01:56:35.566Z,1005.71
2017-09-17T01:57:35.543Z,1005.73
2017-09-17T01:58:35.529Z,1005.74
2017-09-17T01:59:35.510Z,1005.75
2017-09-17T02:00:35.484Z,1005.73
2017-09-17T02:01:35.462Z,1005.7
2017-09-17T02:02:35.442Z,1005.7
2017-09-17T02:03:35.422Z,1005.66
2017-09-17T02:04:35.401Z,1005.71
2017-09-17T02:05:35.385Z,1005.7
2017-09-17T02:06:35.369Z,1005.7
2017-09-17T02:07:35.342Z,1005.73
2017-09-17T02:08:35.320Z,1005.73
2017-09-17T02:09:35.309Z,1005.72
2017-09-17T02:10:35.280Z,1005.73
2017-09-17T02:11:35.260Z,1005.73
2017-09-17T02:12:35.248Z,1005.74
2017-09-17T02:13:35.226Z,1005.73
2017-09-17T02:14:35.198Z,1005.75
2017-09-17T02:15:35.178Z,1005.73
2017-09-17T02:16:35.159Z,1005.74
2017-09-17T02:17:35.140Z,1005.76
2017-09-17T02:18:35.119Z,1005.75
2017-09-17T02:19:35.098Z,1005.77
2017-09-17T02:20:35.090Z,1005.76
2017-09-17T02:21:35.057Z,1005.78
2017-09-17T02:22:35.062Z,1005.8
2017-09-17T02:23:35.024Z,1005.8
2017-09-17T02:24:35.000Z,1005.81
2017-09-17T02:25:34.976Z,1005.81
2017-09-17T02:26:34.959Z,1005.81
2017-09-17T02:27:34.938Z,1005.8
2017-09-17T02:28:34.919Z,1005.82
2017-09-17T02:29:34.901Z,1005.83
2017-09-17T02:30:34.879Z,1005.81
2017-09-17T02:31:34.860Z,1005.81
2017-09-17T02:32:34.834Z,1005.8
2017-09-17T02:33:34.820Z,1005.75
2017-09-17T02:34:34.793Z,1005.81
2017-09-17T02:35:34.790Z,1005.82
2017-09-17T02:36:34.769Z,1005.8
2017-09-17T02:37:34.737Z,1005.81
2017-09-17T02:38:34.719Z,1005.81
2017-09-17T02:39:34.697Z,1005.82
2017-09-17T02:40:34.682Z,1005.88
2017-09-17T02:41:34.658Z,1005.86
2017-09-17T02:42:34.633Z,1005.87
2017-09-17T02:43:34.614Z,1005.85
2017-09-17T02:44:34.594Z,1005.88
2017-09-17T02:45:34.580Z,1005.89
2017-09-17T02:46:34.551Z,1005.88
2017-09-17T02:47:34.532Z,1005.86
2017-09-17T02:48:34.509Z,1005.87
2017-09-17T02:49:34.501Z,1005.87
2017-09-17T02:50:34.468Z,1005.85
2017-09-17T02:51:34.449Z,1005.85
2017-09-17T02:52:34.430Z,1005.86
2017-09-17T02:53:34.410Z,1005.85
2017-09-17T02:54:34.390Z,1005.82
2017-09-17T02:55:34.368Z,1005.8
2017-09-17T02:56:34.345Z,1005.81
2017-09-17T02:57:34.327Z,1005.86
2017-09-17T02:58:34.309Z,1005.84
2017-09-17T02:59:34.290Z,1005.86
2017-09-17T03:00:34.267Z,1005.82
2017-09-17T03:01:34.249Z,1005.86
2017-09-17T03:02:34.229Z,1005.83
2017-09-17T03:03:34.208Z,1005.82
2017-09-17T03:04:34.189Z,1005.81
2017-09-17T03:05:34.172Z,1005.85
2017-09-17T03:06:34.149Z,1005.81
2017-09-17T03:07:34.129Z,1005.86
2017-09-17T03:08:34.108Z,1005.82
2017-09-17T03:09:34.089Z,1005.82
2017-09-17T03:10:34.069Z,1005.86
2017-09-17T03:11:34.050Z,1005.8
2017-09-17T03:12:34.030Z,1005.83
2017-09-17T03:13:34.005Z,1005.82
2017-09-17T03:14:33.993Z,1005.82
2017-09-17T03:15:33.971Z,1005.83
2017-09-17T03:16:33.947Z,1005.8
2017-09-17T03:17:33.950Z,1005.8
2017-09-17T03:18:33.904Z,1005.83
2017-09-17T03:19:33.889Z,1005.83
2017-09-17T03:20:33.867Z,1005.85
2017-09-17T03:21:33.850Z,1005.82
2017-09-17T03:22:33.828Z,1005.81
2017-09-17T03:23:33.804Z,1005.82
2017-09-17T03:24:33.789Z,1005.8
2017-09-17T03:25:33.764Z,1005.8
2017-09-17T03:26:33.750Z,1005.79
2017-09-17T03:27:33.728Z,1005.78
2017-09-17T03:28:33.700Z,1005.76
2017-09-17T03:29:33.685Z,1005.76
2017-09-17T03:30:33.659Z,1005.8
2017-09-17T03:31:33.639Z,1005.81
2017-09-17T03:32:33.620Z,1005.8
2017-09-17T03:33:33.599Z,1005.8
2017-09-17T03:34:33.579Z,1005.83
2017-09-17T03:35:33.559Z,1005.81
2017-09-17T03:36:33.539Z,1005.83
2017-09-17T03:37:33.520Z,1005.87
2017-09-17T03:38:33.499Z,1005.85
2017-09-17T03:39:33.480Z,1005.83
2017-09-17T03:40:33.461Z,1005.86
2017-09-17T03:41:33.439Z,1005.86
2017-09-17T03:42:33.416Z,1005.9
2017-09-17T03:43:33.396Z,1005.89
2017-09-17T03:44:33.379Z,1005.88
2017-09-17T03:45:33.351Z,1005.85
2017-09-17T03:46:33.328Z,1005.84
2017-09-17T03:47:33.311Z,1005.86
2017-09-17T03:48:33.288Z,1005.86
2017-09-17T03:49:33.273Z,1005.89
2017-09-17T03:50:33.252Z,1005.89
2017-09-17T03:51:33.229Z,1005.86
2017-09-17T03:52:33.209Z,1005.88
2017-09-17T03:53:33.189Z,1005.86
2017-09-17T03:54:33.167Z,1005.88
2017-09-17T03:55:33.150Z,1005.84
2017-09-17T03:56:33.129Z,1005.88
2017-09-17T03:57:33.105Z,1005.87
2017-09-17T03:58:33.089Z,1005.83
2017-09-17T03:59:33.065Z,1005.82
2017-09-17T04:00:33.050Z,1005.84
2017-09-17T04:01:33.030Z,1005.81
2017-09-17T04:02:33.008Z,1005.78
2017-09-17T04:03:32.989Z,1005.76
2017-09-17T04:04:32.969Z,1005.79
2017-09-17T04:05:32.968Z,1005.76
2017-09-17T04:06:32.927Z,1005.79
2017-09-17T04:07:32.904Z,1005.78
2017-09-17T04:08:32.878Z,1005.81
2017-09-17T04:09:32.862Z,1005.78
2017-09-17T04:10:32.840Z,1005.75
2017-09-17T04:11:32.819Z,1005.78
2017-09-17T04:12:32.801Z,1005.74
2017-09-17T04:13:32.777Z,1005.79
2017-09-17T04:14:32.770Z,1005.78
2017-09-17T04:15:32.739Z,1005.77
2017-09-17T04:16:32.722Z,1005.78
2017-09-17T04:17:32.698Z,1005.75
2017-09-17T04:18:32.682Z,1005.77
2017-09-17T04:19:32.658Z,1005.79
2017-09-17T04:20:32.639Z,1005.81
2017-09-17T04:21:32.613Z,1005.8
2017-09-17T04:22:32.595Z,1005.78
2017-09-17T04:23:32.572Z,1005.79
2017-09-17T04:24:32.558Z,1005.79
2017-09-17T04:25:32.530Z,1005.8
2017-09-17T04:26:32.520Z,1005.81
2017-09-17T04:27:32.489Z,1005.81
2017-09-17T04:28:32.470Z,1005.84
2017-09-17T04:29:32.450Z,1005.84
2017-09-17T04:30:32.428Z,1005.86
2017-09-17T04:31:32.406Z,1005.86
2017-09-17T04:32:32.389Z,1005.87
2017-09-17T04:33:32.370Z,1005.89
2017-09-17T04:34:32.349Z,1005.89
2017-09-17T04:35:32.323Z,1005.89
2017-09-17T04:36:32.308Z,1005.92
2017-09-17T04:37:32.284Z,1005.92
2017-09-17T04:38:32.271Z,1005.93
2017-09-17T04:39:32.249Z,1005.94
2017-09-17T04:40:32.224Z,1005.94
2017-09-17T04:41:32.209Z,1006
2017-09-17T04:42:32.179Z,1005.92
2017-09-17T04:43:32.162Z,1005.95
2017-09-17T04:44:32.147Z,1005.98
2017-09-17T04:45:32.119Z,1005.99
2017-09-17T04:46:32.099Z,1005.97
2017-09-17T04:47:32.082Z,1006.01
2017-09-17T04:48:32.060Z,1006
2017-09-17T04:49:32.035Z,1005.99
2017-09-17T04:50:32.022Z,1006.01
2017-09-17T04:51:31.998Z,1006.02
2017-09-17T04:52:31.979Z,1006.01
2017-09-17T04:53:31.957Z,1005.98
2017-09-17T04:54:31.933Z,1006.01
2017-09-17T04:55:31.920Z,1006.03
2017-09-17T04:56:31.895Z,1006.08
2017-09-17T04:57:31.883Z,1006.05
2017-09-17T04:58:31.854Z,1006.07
2017-09-17T04:59:31.828Z,1006.09
2017-09-17T05:00:31.812Z,1006.11
2017-09-17T05:01:31.792Z,1006.13
2017-09-17T05:02:31.767Z,1006.1
2017-09-17T05:03:31.753Z,1006.16
2017-09-17T05:04:31.729Z,1006.15
2017-09-17T05:05:31.703Z,1006.19
2017-09-17T05:06:31.688Z,1006.2
2017-09-17T05:07:31.665Z,1006.17
2017-09-17T05:08:31.648Z,1006.21
2017-09-17T05:09:31.625Z,1006.23
2017-09-17T05:10:31.601Z,1006.18
2017-09-17T05:11:31.595Z,1006.25
2017-09-17T05:12:31.561Z,1006.23
2017-09-17T05:13:31.543Z,1006.26
2017-09-17T05:14:31.522Z,1006.28
2017-09-17T05:15:31.498Z,1006.26
2017-09-17T05:16:31.480Z,1006.33
2017-09-17T05:17:31.466Z,1006.33
2017-09-17T05:18:31.436Z,1006.33
2017-09-17T05:19:31.418Z,1006.33
2017-09-17T05:20:31.395Z,1006.31
2017-09-17T05:21:31.376Z,1006.31
2017-09-17T05:22:31.357Z,1006.3
2017-09-17T05:23:31.333Z,1006.35
2017-09-17T05:24:31.319Z,1006.29
2017-09-17T05:25:31.291Z,1006.3
2017-09-17T05:26:31.278Z,1006.33
2017-09-17T05:27:31.250Z,1006.33
2017-09-17T05:28:31.232Z,1006.34
2017-09-17T05:29:31.210Z,1006.34
2017-09-17T05:30:31.191Z,1006.33
2017-09-17T05:31:31.167Z,1006.32
2017-09-17T05:32:31.150Z,1006.34
2017-09-17T05:33:31.129Z,1006.37
2017-09-17T05:34:31.105Z,1006.36
2017-09-17T05:35:31.090Z,1006.37
2017-09-17T05:36:31.071Z,1006.34
2017-09-17T05:37:31.040Z,1006.4
2017-09-17T05:38:31.032Z,1006.4
2017-09-17T05:39:31.002Z,1006.44
2017-09-17T05:40:30.981Z,1006.44
2017-09-17T05:41:30.961Z,1006.4
2017-09-17T05:42:30.942Z,1006.42
2017-09-17T05:43:30.925Z,1006.4
2017-09-17T05:44:30.902Z,1006.43
2017-09-17T05:45:30.881Z,1006.43
2017-09-17T05:46:30.861Z,1006.44
2017-09-17T05:47:30.841Z,1006.42
2017-09-17T05:48:30.819Z,1006.44
2017-09-17T05:49:30.802Z,1006.42
2017-09-17T05:50:30.777Z,1006.44
2017-09-17T05:51:30.750Z,1006.45
2017-09-17T05:52:30.731Z,1006.46
2017-09-17T05:53:30.710Z,1006.45
2017-09-17T05:54:30.690Z,1006.48
2017-09-17T05:55:30.670Z,1006.49
2017-09-17T05:56:30.647Z,1006.49
2017-09-17T05:57:30.631Z,1006.48
2017-09-17T05:58:30.609Z,1006.48
2017-09-17T05:59:30.587Z,1006.54
2017-09-17T06:00:30.567Z,1006.49
2017-09-17T06:01:30.550Z,1006.46
2017-09-17T06:02:30.522Z,1006.5
2017-09-17T06:03:30.504Z,1006.5
2017-09-17T06:04:30.479Z,1006.49
2017-09-17T06:05:30.459Z,1006.49
2017-09-17T06:06:30.440Z,1006.49
2017-09-17T06:07:30.421Z,1006.5
2017-09-17T06:08:30.400Z,1006.48
2017-09-17T06:09:30.381Z,1006.47
2017-09-17T06:10:30.359Z,1006.49
2017-09-17T06:11:30.340Z,1006.5
2017-09-17T06:12:30.317Z,1006.51
2017-09-17T06:13:30.297Z,1006.54
2017-09-17T06:14:30.281Z,1006.58
2017-09-17T06:15:30.253Z,1006.58
2017-09-17T06:16:30.240Z,1006.62
2017-09-17T06:17:30.210Z,1006.61
2017-09-17T06:18:30.214Z,1006.58
2017-09-17T06:19:30.176Z,1006.66
2017-09-17T06:20:30.160Z,1006.65
2017-09-17T06:21:30.130Z,1006.72
2017-09-17T06:22:30.111Z,1006.74
2017-09-17T06:23:30.090Z,1006.68
2017-09-17T06:24:30.067Z,1006.74
2017-09-17T06:25:30.059Z,1006.75
2017-09-17T06:26:30.029Z,1006.78
2017-09-17T06:27:30.010Z,1006.79
2017-09-17T06:28:29.990Z,1006.8
2017-09-17T06:29:29.969Z,1006.82
2017-09-17T06:30:29.948Z,1006.83
2017-09-17T06:31:29.930Z,1006.86
2017-09-17T06:32:29.905Z,1006.84
2017-09-17T06:33:29.882Z,1006.86
2017-09-17T06:34:29.861Z,1006.84
2017-09-17T06:35:29.890Z,1006.84
2017-09-17T06:36:29.820Z,1006.84
2017-09-17T06:37:29.800Z,1006.84
2017-09-17T06:38:29.779Z,1006.81
2017-09-17T06:39:29.759Z,1006.86
2017-09-17T06:40:29.740Z,1006.85
2017-09-17T06:41:29.715Z,1006.83
2017-09-17T06:42:29.694Z,1006.88
2017-09-17T06:43:29.682Z,1006.87
2017-09-17T06:44:29.659Z,1006.88
2017-09-17T06:45:29.683Z,1006.89
2017-09-17T06:46:29.615Z,1006.9
2017-09-17T06:47:29.600Z,1006.88
2017-09-17T06:48:29.574Z,1006.9
2017-09-17T06:49:29.561Z,1006.94
2017-09-17T06:50:29.541Z,1006.94
2017-09-17T06:51:29.518Z,1006.99
2017-09-17T06:52:29.495Z,1007
2017-09-17T06:53:29.539Z,1007
2017-09-17T06:54:29.459Z,1007.02
2017-09-17T06:55:29.442Z,1007.07
2017-09-17T06:56:29.419Z,1007.07
2017-09-17T06:57:29.499Z,1007.09
2017-09-17T06:58:29.381Z,1007.1
2017-09-17T06:59:29.409Z,1007.11
2017-09-17T07:00:29.342Z,1007.07
2017-09-17T07:01:29.429Z,1007.07
2017-09-17T07:02:29.306Z,1007.09
2017-09-17T07:03:29.299Z,1007.03
2017-09-17T07:04:29.279Z,1007.05
2017-09-17T07:05:29.307Z,1007.05
2017-09-17T07:06:29.241Z,1007.07
2017-09-17T07:07:29.221Z,1007.09
2017-09-17T07:08:29.201Z,1007.06
2017-09-17T07:09:29.237Z,1007.11
2017-09-17T07:10:29.169Z,1007.12
2017-09-17T07:11:29.202Z,1007.1
2017-09-17T07:12:29.139Z,1007.14
2017-09-17T07:13:29.117Z,1007.15
2017-09-17T07:14:29.108Z,1007.21
2017-09-17T07:15:29.136Z,1007.14
2017-09-17T07:16:29.067Z,1007.17
2017-09-17T07:17:29.048Z,1007.2
2017-09-17T07:18:29.028Z,1007.23
2017-09-17T07:19:29.013Z,1007.19
2017-09-17T07:20:29.001Z,1007.23
2017-09-17T07:21:28.988Z,1007.28
2017-09-17T07:22:28.970Z,1007.24
2017-09-17T07:23:28.951Z,1007.26
2017-09-17T07:24:28.941Z,1007.33
2017-09-17T07:25:28.921Z,1007.27
2017-09-17T07:26:28.898Z,1007.28
2017-09-17T07:27:28.884Z,1007.31
2017-09-17T07:28:28.866Z,1007.44
2017-09-17T07:29:28.850Z,1007.41
2017-09-17T07:30:28.839Z,1007.61
2017-09-17T07:31:28.820Z,1007.7
2017-09-17T07:32:28.807Z,1007.65
2017-09-17T07:33:28.787Z,1007.37
2017-09-17T07:34:28.772Z,1007.43
2017-09-17T07:35:28.758Z,1007.46
2017-09-17T07:36:28.754Z,1007.66
2017-09-17T07:37:28.736Z,1007.74
2017-09-17T07:38:28.719Z,1007.7
2017-09-17T07:39:28.702Z,1007.37
2017-09-17T07:40:28.693Z,1007.36
2017-09-17T07:41:28.676Z,1007.35
2017-09-17T07:42:28.663Z,1007.41
2017-09-17T07:43:28.651Z,1007.33
2017-09-17T07:44:28.635Z,1007.31
2017-09-17T07:45:28.626Z,1007.31
2017-09-17T07:46:28.614Z,1007.32
2017-09-17T07:47:28.605Z,1007.34
2017-09-17T07:48:28.587Z,1007.33
2017-09-17T07:49:28.570Z,1007.31
2017-09-17T07:50:28.561Z,1007.35
2017-09-17T07:51:28.539Z,1007.35
2017-09-17T07:52:28.538Z,1007.35
2017-09-17T07:53:28.520Z,1007.31
2017-09-17T07:54:28.510Z,1007.38
2017-09-17T07:55:28.485Z,1007.4
2017-09-17T07:56:28.470Z,1007.36
2017-09-17T07:57:28.469Z,1007.4
2017-09-17T07:58:28.441Z,1007.44
2017-09-17T07:59:28.427Z,1007.4
2017-09-17T08:00:28.419Z,1007.37
2017-09-17T08:01:28.400Z,1007.36
2017-09-17T08:02:28.384Z,1007.42
2017-09-17T08:03:28.371Z,1007.59
2017-09-17T08:04:28.365Z,1007.4
2017-09-17T08:05:28.347Z,1007.47
2017-09-17T08:06:28.330Z,1007.56
2017-09-17T08:07:28.321Z,1007.57
2017-09-17T08:08:28.321Z,1007.57
2017-09-17T08:09:28.289Z,1007.59
2017-09-17T08:10:28.281Z,1007.53
2017-09-17T08:11:28.269Z,1007.58
2017-09-17T08:12:28.254Z,1007.57
2017-09-17T08:13:28.251Z,1007.59
2017-09-17T08:14:28.236Z,1007.57
2017-09-17T08:15:28.225Z,1007.61
2017-09-17T08:16:28.222Z,1007.58
2017-09-17T08:17:28.212Z,1007.58
2017-09-17T08:18:28.199Z,1007.58
2017-09-17T08:19:28.191Z,1007.59
2017-09-17T08:20:28.185Z,1007.65
2017-09-17T08:21:28.177Z,1007.61
2017-09-17T08:22:28.174Z,1007.59
2017-09-17T08:23:28.159Z,1007.61
2017-09-17T08:24:28.158Z,1007.64
2017-09-17T08:25:28.146Z,1007.61
2017-09-17T08:26:28.142Z,1007.6
2017-09-17T08:27:28.140Z,1007.58
2017-09-17T08:28:28.130Z,1007.57
2017-09-17T08:29:28.122Z,1007.6
2017-09-17T08:30:28.124Z,1007.64
2017-09-17T08:31:28.116Z,1007.57
2017-09-17T08:32:28.109Z,1007.57
2017-09-17T08:33:28.108Z,1007.53
2017-09-17T08:34:28.099Z,1007.55
2017-09-17T08:35:28.108Z,1007.52
2017-09-17T08:36:28.086Z,1007.5
2017-09-17T08:37:28.080Z,1007.51
2017-09-17T08:38:28.071Z,1007.47
2017-09-17T08:39:28.069Z,1007.49
2017-09-17T08:40:28.061Z,1007.47
2017-09-17T08:41:28.050Z,1007.54
2017-09-17T08:42:28.040Z,1007.68
2017-09-17T08:43:28.033Z,1007.63
2017-09-17T08:44:28.024Z,1007.67
2017-09-17T08:45:28.017Z,1007.61
2017-09-17T08:46:28.016Z,1007.64
2017-09-17T08:47:28.006Z,1007.64
2017-09-17T08:48:27.995Z,1007.63
2017-09-17T08:49:27.990Z,1007.62
2017-09-17T08:50:27.979Z,1007.63
2017-09-17T08:51:27.979Z,1007.62
2017-09-17T08:52:27.970Z,1007.57
2017-09-17T08:53:27.962Z,1007.57
2017-09-17T08:54:27.962Z,1007.57
2017-09-17T08:55:27.950Z,1007.6
2017-09-17T08:56:27.939Z,1007.58
2017-09-17T08:57:27.933Z,1007.61
2017-09-17T08:58:27.930Z,1007.58
2017-09-17T08:59:27.924Z,1007.45
2017-09-17T09:00:27.917Z,1007.45
2017-09-17T09:01:27.918Z,1007.52
2017-09-17T09:02:27.913Z,1007.51
2017-09-17T09:03:27.902Z,1007.5
2017-09-17T09:04:27.902Z,1007.49
2017-09-17T09:05:27.989Z,1007.42
2017-09-17T09:06:27.887Z,1007.45
2017-09-17T09:07:27.882Z,1007.5
2017-09-17T09:08:27.870Z,1007.46
2017-09-17T09:09:27.921Z,1007.43
2017-09-17T09:10:27.862Z,1007.48
2017-09-17T09:11:27.849Z,1007.53
2017-09-17T09:12:27.840Z,1007.52
2017-09-17T09:13:27.842Z,1007.54
2017-09-17T09:14:27.829Z,1007.45
2017-09-17T09:15:27.833Z,1007.4
2017-09-17T09:16:27.824Z,1007.42
2017-09-17T09:17:27.816Z,1007.43
2017-09-17T09:18:27.811Z,1007.51
2017-09-17T09:19:27.801Z,1007.37
2017-09-17T09:20:27.791Z,1007.4
2017-09-17T09:21:27.792Z,1007.4
2017-09-17T09:22:27.772Z,1007.31
2017-09-17T09:23:27.764Z,1007.33
2017-09-17T09:24:27.764Z,1007.35
2017-09-17T09:25:27.750Z,1007.34
2017-09-17T09:26:27.746Z,1007.4
2017-09-17T09:27:27.741Z,1007.35
2017-09-17T09:28:27.733Z,1007.34
2017-09-17T09:29:27.717Z,1007.38
2017-09-17T09:30:27.733Z,1007.38
2017-09-17T09:31:27.713Z,1007.35
2017-09-17T09:32:27.701Z,1007.3
2017-09-17T09:33:27.691Z,1007.27
2017-09-17T09:34:27.687Z,1007.33
2017-09-17T09:35:27.692Z,1007.22
2017-09-17T09:36:27.673Z,1007.26
2017-09-17T09:37:27.666Z,1007.29
2017-09-17T09:38:27.656Z,1007.28
2017-09-17T09:39:27.651Z,1007.28
2017-09-17T09:40:27.650Z,1007.24
2017-09-17T09:41:27.635Z,1007.25
2017-09-17T09:42:27.632Z,1007.25
2017-09-17T09:43:27.626Z,1007.24
2017-09-17T09:44:27.638Z,1007.27
2017-09-17T09:45:27.616Z,1007.2
2017-09-17T09:46:27.611Z,1007.24
2017-09-17T09:47:27.609Z,1007.23
2017-09-17T09:48:27.597Z,1007.16
2017-09-17T09:49:27.600Z,1007.18
2017-09-17T09:50:27.650Z,1007.21
2017-09-17T09:51:27.581Z,1007.18
2017-09-17T09:52:27.577Z,1007.16
2017-09-17T09:53:27.568Z,1007.12
2017-09-17T09:54:27.563Z,1007.15
2017-09-17T09:55:27.563Z,1007.13
2017-09-17T09:56:27.553Z,1007.14
2017-09-17T09:57:27.560Z,1007.11
2017-09-17T09:58:27.541Z,1007.14
2017-09-17T09:59:27.534Z,1007.12
2017-09-17T10:00:27.533Z,1007.08
2017-09-17T10:01:27.519Z,1007.13
2017-09-17T10:02:27.532Z,1007.12
2017-09-17T10:03:27.512Z,1007.12
2017-09-17T10:04:27.501Z,1007.14
2017-09-17T10:05:27.493Z,1007.1
2017-09-17T10:06:27.486Z,1007.07
2017-09-17T10:07:27.483Z,1007.1
2017-09-17T10:08:27.470Z,1007.13
2017-09-17T10:09:27.471Z,1007.16
2017-09-17T10:10:27.466Z,1007.12
2017-09-17T10:11:27.800Z,1007.1
2017-09-17T10:12:27.442Z,1007.11
2017-09-17T10:13:27.435Z,1007.08
2017-09-17T10:14:27.429Z,1007.08
2017-09-17T10:15:27.420Z,1007.06
2017-09-17T10:16:27.409Z,1007.08
2017-09-17T10:17:27.401Z,1007.1
2017-09-17T10:18:27.402Z,1007.09
2017-09-17T10:19:27.392Z,1007.13
2017-09-17T10:20:27.379Z,1007.07
2017-09-17T10:21:27.372Z,1007.06
2017-09-17T10:22:27.360Z,1007.03
2017-09-17T10:23:27.351Z,1007.05
2017-09-17T10:24:27.344Z,1007.05
2017-09-17T10:25:27.334Z,1006.99
2017-09-17T10:26:27.324Z,1006.96
2017-09-17T10:27:27.317Z,1006.95
2017-09-17T10:28:27.311Z,1006.93
2017-09-17T10:29:27.302Z,1006.95
2017-09-17T10:30:27.286Z,1006.96
2017-09-17T10:31:27.281Z,1006.9
2017-09-17T10:32:27.269Z,1006.88
2017-09-17T10:33:27.258Z,1006.88
2017-09-17T10:34:27.253Z,1006.85
2017-09-17T10:35:27.253Z,1006.88
2017-09-17T10:36:27.249Z,1006.85
2017-09-17T10:37:27.222Z,1006.8
2017-09-17T10:38:27.214Z,1006.87
2017-09-17T10:39:27.200Z,1006.82
2017-09-17T10:40:27.193Z,1006.87
2017-09-17T10:41:27.180Z,1006.86
2017-09-17T10:42:27.172Z,1006.87
2017-09-17T10:43:27.164Z,1006.88
2017-09-17T10:44:27.152Z,1006.9
2017-09-17T10:45:27.142Z,1006.91
2017-09-17T10:46:27.139Z,1006.87
2017-09-17T10:47:27.124Z,1006.85
2017-09-17T10:48:27.115Z,1006.88
2017-09-17T10:49:27.103Z,1006.88
2017-09-17T10:50:27.101Z,1006.87
2017-09-17T10:51:27.081Z,1006.92
2017-09-17T10:52:27.072Z,1006.92
2017-09-17T10:53:27.061Z,1006.88
2017-09-17T10:54:27.053Z,1006.85
2017-09-17T10:55:27.041Z,1006.86
2017-09-17T10:56:27.031Z,1006.82
2017-09-17T10:57:27.023Z,1006.83
2017-09-17T10:58:27.013Z,1006.82
2017-09-17T10:59:27.003Z,1006.83
2017-09-17T11:00:26.994Z,1006.81
2017-09-17T11:01:26.981Z,1006.77
2017-09-17T11:02:26.973Z,1006.77
2017-09-17T11:03:26.964Z,1006.73
2017-09-17T11:04:26.952Z,1006.73
2017-09-17T11:05:26.938Z,1006.74
2017-09-17T11:06:26.927Z,1006.73
2017-09-17T11:07:26.915Z,1006.7
2017-09-17T11:08:27.158Z,1006.68
2017-09-17T11:09:26.899Z,1006.68
2017-09-17T11:10:26.891Z,1006.68
2017-09-17T11:11:26.876Z,1006.72
2017-09-17T11:12:26.866Z,1006.71
2017-09-17T11:13:26.856Z,1006.71
2017-09-17T11:14:26.841Z,1006.63
2017-09-17T11:15:26.830Z,1006.66
2017-09-17T11:16:26.819Z,1006.64
2017-09-17T11:17:26.812Z,1006.66
2017-09-17T11:18:26.800Z,1006.63
2017-09-17T11:19:26.792Z,1006.61
2017-09-17T11:20:26.778Z,1006.65
2017-09-17T11:21:26.766Z,1006.65
2017-09-17T11:22:26.763Z,1006.64
2017-09-17T11:23:26.802Z,1006.63
2017-09-17T11:24:26.735Z,1006.65
2017-09-17T11:25:26.725Z,1006.61
2017-09-17T11:26:26.718Z,1006.61
2017-09-17T11:27:26.710Z,1006.58
2017-09-17T11:28:26.941Z,1006.6
2017-09-17T11:29:26.680Z,1006.61
2017-09-17T11:30:26.674Z,1006.61
2017-09-17T11:31:26.665Z,1006.61
2017-09-17T11:32:26.648Z,1006.56
2017-09-17T11:33:26.640Z,1006.54
2017-09-17T11:34:26.630Z,1006.5
2017-09-17T11:35:26.618Z,1006.49
2017-09-17T11:36:26.609Z,1006.5
2017-09-17T11:37:26.600Z,1006.48
2017-09-17T11:38:26.586Z,1006.5
2017-09-17T11:39:26.587Z,1006.45
2017-09-17T11:40:26.571Z,1006.39
2017-09-17T11:41:26.555Z,1006.4
2017-09-17T11:42:26.551Z,1006.41
2017-09-17T11:43:26.532Z,1006.38
2017-09-17T11:44:26.528Z,1006.4
2017-09-17T11:45:26.512Z,1006.41
2017-09-17T11:46:26.503Z,1006.37
2017-09-17T11:47:26.497Z,1006.37
2017-09-17T11:48:26.479Z,1006.38
2017-09-17T11:49:26.472Z,1006.39
2017-09-17T11:50:26.456Z,1006.33
2017-09-17T11:51:26.447Z,1006.35
2017-09-17T11:52:26.438Z,1006.35
2017-09-17T11:53:26.422Z,1006.31
2017-09-17T11:54:26.417Z,1006.35
2017-09-17T11:55:26.402Z,1006.34
2017-09-17T11:56:26.410Z,1006.36
2017-09-17T11:57:26.380Z,1006.33
2017-09-17T11:58:26.369Z,1006.34
2017-09-17T11:59:26.363Z,1006.34
2017-09-17T12:00:26.353Z,1006.32
2017-09-17T12:01:26.340Z,1006.33
2017-09-17T12:02:26.324Z,1006.32
2017-09-17T12:03:26.319Z,1006.3
2017-09-17T12:04:26.303Z,1006.29
2017-09-17T12:05:26.296Z,1006.28
2017-09-17T12:06:26.281Z,1006.28
2017-09-17T12:07:26.273Z,1006.29
2017-09-17T12:08:26.264Z,1006.27